createdAt,value
2019-01-13T00:00:41.531Z,7.70
2019-01-13T00:03:09.838Z,7.69
2019-01-13T00:05:38.127Z,7.67
2019-01-13T00:08:06.561Z,7.68
2019-01-13T00:10:34.988Z,7.70
2019-01-13T00:13:03.456Z,7.71
2019-01-13T00:15:31.862Z,7.75
2019-01-13T00:18:00.174Z,7.71
2019-01-13T00:20:28.596Z,7.71
2019-01-13T00:22:57.026Z,7.71
2019-01-13T00:25:25.438Z,7.70
2019-01-13T00:27:53.900Z,7.69
2019-01-13T00:30:22.298Z,7.70
2019-01-13T00:32:50.839Z,7.69
2019-01-13T00:35:19.559Z,7.69
2019-01-13T00:37:47.871Z,7.65
2019-01-13T00:40:18.289Z,7.65
2019-01-13T00:42:46.596Z,7.66
2019-01-13T00:45:15.696Z,7.72
2019-01-13T00:47:44.013Z,7.69
2019-01-13T00:50:14.276Z,7.72
2019-01-13T00:52:42.659Z,7.72
2019-01-13T00:55:12.833Z,7.73
2019-01-13T00:57:41.116Z,7.73
2019-01-13T01:00:13.085Z,7.70
2019-01-13T01:02:41.460Z,7.70
2019-01-13T01:05:10.828Z,7.68
2019-01-13T01:07:39.120Z,7.69
2019-01-13T01:10:10.614Z,7.66
2019-01-13T01:12:38.992Z,7.65
2019-01-13T01:15:10.195Z,7.65
2019-01-13T01:17:38.496Z,7.64
2019-01-13T01:20:10.205Z,7.64
2019-01-13T01:22:38.618Z,7.58
2019-01-13T01:25:08.661Z,7.57
2019-01-13T01:27:37.017Z,7.56
2019-01-13T01:30:08.734Z,7.59
2019-01-13T01:32:37.142Z,7.64
2019-01-13T01:35:06.488Z,7.62
2019-01-13T01:37:34.939Z,7.61
2019-01-13T01:40:03.286Z,7.61
2019-01-13T01:42:31.661Z,7.64
2019-01-13T01:45:00.146Z,7.63
2019-01-13T01:47:28.559Z,7.64
2019-01-13T01:49:56.923Z,7.64
2019-01-13T01:52:25.277Z,7.66
2019-01-13T01:54:56.324Z,7.63
2019-01-13T01:57:24.643Z,7.65
2019-01-13T01:59:52.990Z,7.60
2019-01-13T02:02:21.490Z,7.60
2019-01-13T02:04:49.834Z,7.60
2019-01-13T02:07:18.192Z,7.60
2019-01-13T02:09:46.622Z,7.57
2019-01-13T02:12:15.056Z,7.55
2019-01-13T02:14:43.700Z,7.58
2019-01-13T02:17:12.083Z,7.54
2019-01-13T02:19:40.393Z,7.48
2019-01-13T02:22:08.733Z,7.48
2019-01-13T02:24:37.052Z,7.44
2019-01-13T02:27:06.548Z,7.40
2019-01-13T02:29:34.834Z,7.38
2019-01-13T02:32:03.217Z,7.37
2019-01-13T02:34:31.604Z,7.33
2019-01-13T02:37:00.114Z,7.35
2019-01-13T02:39:28.418Z,7.35
2019-01-13T02:41:56.701Z,7.32
2019-01-13T02:44:25.159Z,7.35
2019-01-13T02:46:53.439Z,7.35
2019-01-13T02:49:21.709Z,7.36
2019-01-13T02:51:50.120Z,7.35
2019-01-13T02:54:18.568Z,7.36
2019-01-13T02:56:46.848Z,7.39
2019-01-13T02:59:15.361Z,7.40
2019-01-13T03:01:43.675Z,7.41
2019-01-13T03:04:12.032Z,7.42
2019-01-13T03:06:40.362Z,7.38
2019-01-13T03:09:08.802Z,7.39
2019-01-13T03:11:37.110Z,7.41
2019-01-13T03:14:05.672Z,7.40
2019-01-13T03:16:34.311Z,7.40
2019-01-13T03:19:02.618Z,7.38
2019-01-13T03:21:31.043Z,7.40
2019-01-13T03:23:59.344Z,7.42
2019-01-13T03:26:27.711Z,7.41
2019-01-13T03:28:56.079Z,7.45
2019-01-13T03:31:24.441Z,7.47
2019-01-13T03:33:52.910Z,7.47
2019-01-13T03:36:21.290Z,7.49
2019-01-13T03:38:49.638Z,7.49
2019-01-13T03:41:17.943Z,7.51
2019-01-13T03:43:46.311Z,7.55
2019-01-13T03:46:14.650Z,7.55
2019-01-13T03:48:43.017Z,7.55
2019-01-13T03:51:11.350Z,7.55
2019-01-13T03:53:39.684Z,7.57
2019-01-13T03:56:08.068Z,7.56
2019-01-13T03:58:36.350Z,7.57
2019-01-13T04:01:04.694Z,7.59
2019-01-13T04:03:33.145Z,7.62
2019-01-13T04:06:01.473Z,7.61
2019-01-13T04:08:29.750Z,7.64
2019-01-13T04:10:58.200Z,7.65
2019-01-13T04:13:26.667Z,7.68
2019-01-13T04:15:57.329Z,7.67
2019-01-13T04:18:25.676Z,7.66
2019-01-13T04:20:54.123Z,7.69
2019-01-13T04:23:22.510Z,7.68
2019-01-13T04:25:50.794Z,7.71
2019-01-13T04:28:19.890Z,7.70
2019-01-13T04:30:48.511Z,7.72
2019-01-13T04:33:17.058Z,7.72
2019-01-13T04:35:45.350Z,7.70
2019-01-13T04:38:14.002Z,7.71
2019-01-13T04:40:42.389Z,7.71
2019-01-13T04:43:10.751Z,7.72
2019-01-13T04:45:39.298Z,7.73
2019-01-13T04:48:07.666Z,7.75
2019-01-13T04:50:36.044Z,7.74
2019-01-13T04:53:04.479Z,7.72
2019-01-13T04:55:32.880Z,7.74
2019-01-13T04:58:01.239Z,7.75
2019-01-13T05:00:29.668Z,7.75
2019-01-13T05:02:58.078Z,7.78
2019-01-13T05:05:26.323Z,7.80
2019-01-13T05:07:54.788Z,7.80
2019-01-13T05:10:23.141Z,7.80
2019-01-13T05:12:51.471Z,7.80
2019-01-13T05:15:19.882Z,7.81
2019-01-13T05:17:48.268Z,7.84
2019-01-13T05:20:18.599Z,7.82
2019-01-13T05:22:47.769Z,7.81
2019-01-13T05:25:16.234Z,7.83
2019-01-13T05:27:44.591Z,7.83
2019-01-13T05:30:15.920Z,7.86
2019-01-13T05:32:44.206Z,7.89
2019-01-13T05:35:12.511Z,7.91
2019-01-13T05:37:40.979Z,7.95
2019-01-13T05:40:14.908Z,7.95
2019-01-13T05:42:43.198Z,7.99
2019-01-13T05:45:14.493Z,7.97
2019-01-13T05:47:42.907Z,7.99
2019-01-13T05:50:13.411Z,8.03
2019-01-13T05:52:42.919Z,8.03
2019-01-13T05:55:11.170Z,8.07
2019-01-13T05:57:39.548Z,8.06
2019-01-13T06:00:13.747Z,8.07
2019-01-13T06:02:42.026Z,8.08
2019-01-13T06:05:10.347Z,8.07
2019-01-13T06:07:38.617Z,8.09
2019-01-13T06:10:10.140Z,8.12
2019-01-13T06:12:38.427Z,8.10
2019-01-13T06:15:09.699Z,8.13
2019-01-13T06:17:37.975Z,8.13
2019-01-13T06:20:09.563Z,8.17
2019-01-13T06:22:37.987Z,8.20
2019-01-13T06:25:06.474Z,8.18
2019-01-13T06:27:34.759Z,8.21
2019-01-13T06:30:03.185Z,8.22
2019-01-13T06:32:31.501Z,8.27
2019-01-13T06:34:59.871Z,8.30
2019-01-13T06:37:28.146Z,8.29
2019-01-13T06:39:56.566Z,8.30
2019-01-13T06:42:24.915Z,8.33
2019-01-13T06:44:53.236Z,8.38
2019-01-13T06:47:21.663Z,8.38
2019-01-13T06:49:49.956Z,8.38
2019-01-13T06:52:18.345Z,8.38
2019-01-13T06:54:46.646Z,8.39
2019-01-13T06:57:15.007Z,8.45
2019-01-13T06:59:43.348Z,8.41
2019-01-13T07:02:11.624Z,8.42
2019-01-13T07:04:40.052Z,8.42
2019-01-13T07:07:08.416Z,8.42
2019-01-13T07:09:36.894Z,8.42
2019-01-13T07:12:05.197Z,8.44
2019-01-13T07:14:33.513Z,8.45
2019-01-13T07:17:01.867Z,8.45
2019-01-13T07:19:30.220Z,8.46
2019-01-13T07:21:58.669Z,8.47
2019-01-13T07:24:27.008Z,8.49
2019-01-13T07:26:55.367Z,8.48
2019-01-13T07:29:23.818Z,8.50
2019-01-13T07:31:52.173Z,8.52
2019-01-13T07:34:20.483Z,8.54
2019-01-13T07:36:48.835Z,8.54
2019-01-13T07:39:17.106Z,8.58
2019-01-13T07:41:46.024Z,8.58
2019-01-13T07:44:14.323Z,8.63
2019-01-13T07:46:42.582Z,8.64
2019-01-13T07:49:10.996Z,8.67
2019-01-13T07:51:40.169Z,8.68
2019-01-13T07:54:08.749Z,8.69
2019-01-13T07:56:37.094Z,8.69
2019-01-13T07:59:05.346Z,8.73
2019-01-13T08:01:33.713Z,8.72
2019-01-13T08:04:01.993Z,8.74
2019-01-13T08:06:30.394Z,8.76
2019-01-13T08:08:58.665Z,8.77
2019-01-13T08:11:26.966Z,8.77
2019-01-13T08:13:55.322Z,8.79
2019-01-13T08:16:23.706Z,8.82
2019-01-13T08:18:52.109Z,8.82
2019-01-13T08:21:20.465Z,8.83
2019-01-13T08:23:48.918Z,8.82
2019-01-13T08:26:18.834Z,8.83
2019-01-13T08:28:47.114Z,8.85
2019-01-13T08:31:15.491Z,8.86
2019-01-13T08:33:43.830Z,8.87
2019-01-13T08:36:12.163Z,8.88
2019-01-13T08:38:42.083Z,8.92
2019-01-13T08:41:14.761Z,8.93
2019-01-13T08:43:43.113Z,8.91
2019-01-13T08:46:11.482Z,8.93
2019-01-13T08:48:41.627Z,8.93
2019-01-13T08:51:11.404Z,8.95
2019-01-13T08:53:41.510Z,8.97
2019-01-13T08:56:10.103Z,8.94
2019-01-13T08:58:38.557Z,8.95
2019-01-13T09:01:08.509Z,8.94
2019-01-13T09:03:36.893Z,8.95
2019-01-13T09:06:05.202Z,8.97
2019-01-13T09:08:33.579Z,8.98
2019-01-13T09:11:01.910Z,9.01
2019-01-13T09:13:30.270Z,9.02
2019-01-13T09:15:58.872Z,9.01
2019-01-13T09:18:27.185Z,9.02
2019-01-13T09:20:55.501Z,9.02
2019-01-13T09:23:23.858Z,9.01
2019-01-13T09:25:53.439Z,9.04
2019-01-13T09:28:21.980Z,9.07
2019-01-13T09:30:50.458Z,9.08
2019-01-13T09:33:20.975Z,9.06
2019-01-13T09:35:49.453Z,9.07
2019-01-13T09:38:17.963Z,9.06
2019-01-13T09:40:48.468Z,9.08
2019-01-13T09:43:16.812Z,9.10
2019-01-13T09:45:45.299Z,9.07
2019-01-13T09:48:13.736Z,9.09
2019-01-13T09:50:42.113Z,9.08
2019-01-13T09:53:10.449Z,9.06
2019-01-13T09:55:38.998Z,9.11
2019-01-13T09:58:07.449Z,9.09
2019-01-13T10:00:35.875Z,9.10
2019-01-13T10:03:05.349Z,9.10
2019-01-13T10:05:33.609Z,9.10
2019-01-13T10:08:01.859Z,9.12
2019-01-13T10:10:30.244Z,9.10
2019-01-13T10:12:58.492Z,9.11
2019-01-13T10:15:27.479Z,9.08
2019-01-13T10:17:55.835Z,9.11
2019-01-13T10:20:24.036Z,9.07
2019-01-13T10:22:52.413Z,9.08
2019-01-13T10:25:20.667Z,9.10
2019-01-13T10:27:48.994Z,9.13
2019-01-13T10:30:20.522Z,9.10
2019-01-13T10:32:54.434Z,9.13
2019-01-13T10:35:18.796Z,9.09
2019-01-13T10:37:47.039Z,9.08
2019-01-13T10:40:17.583Z,9.13
2019-01-13T10:42:45.816Z,9.12
2019-01-13T10:45:17.986Z,9.12
2019-01-13T10:47:45.937Z,9.13
2019-01-13T10:50:16.873Z,9.13
2019-01-13T10:52:45.143Z,9.12
2019-01-13T10:55:13.465Z,9.11
2019-01-13T10:57:41.747Z,9.08
2019-01-13T11:00:15.812Z,9.11
2019-01-13T11:02:44.066Z,9.06
2019-01-13T11:05:12.329Z,9.09
2019-01-13T11:07:40.618Z,9.08
2019-01-13T11:10:14.443Z,9.05
2019-01-13T11:12:42.690Z,9.07
2019-01-13T11:15:13.469Z,9.04
2019-01-13T11:17:42.359Z,9.10
2019-01-13T11:20:23.293Z,9.07
2019-01-13T11:22:51.703Z,9.07
2019-01-13T11:25:20.026Z,9.08
2019-01-13T11:27:48.281Z,9.07
2019-01-13T11:30:18.897Z,9.04
2019-01-13T11:32:47.142Z,9.09
2019-01-13T11:35:15.389Z,9.10
2019-01-13T11:37:43.651Z,9.07
2019-01-13T11:40:15.003Z,9.07
2019-01-13T11:42:43.314Z,9.10
2019-01-13T11:45:11.674Z,9.13
2019-01-13T11:47:39.920Z,9.10
2019-01-13T11:50:13.497Z,9.09
2019-01-13T11:52:41.812Z,9.08
2019-01-13T11:55:12.550Z,9.11
2019-01-13T11:57:40.824Z,9.13
2019-01-13T12:00:18.421Z,9.14
2019-01-13T12:02:46.845Z,9.11
2019-01-13T12:05:15.556Z,9.11
2019-01-13T12:07:44.182Z,9.10
2019-01-13T12:10:15.263Z,9.10
2019-01-13T12:12:43.531Z,9.09
2019-01-13T12:15:14.130Z,9.12
2019-01-13T12:17:42.417Z,9.13
2019-01-13T12:20:13.701Z,9.12
2019-01-13T12:22:41.952Z,9.12
2019-01-13T12:25:13.284Z,9.13
2019-01-13T12:27:41.893Z,9.12
2019-01-13T12:30:19.451Z,9.11
2019-01-13T12:32:48.014Z,9.12
2019-01-13T12:35:16.668Z,9.09
2019-01-13T12:37:45.033Z,9.09
2019-01-13T12:40:15.966Z,9.07
2019-01-13T12:42:44.341Z,9.11
2019-01-13T12:45:15.242Z,9.12
2019-01-13T12:47:43.693Z,9.09
2019-01-13T12:50:17.955Z,9.10
2019-01-13T12:52:46.293Z,9.11
2019-01-13T12:55:15.653Z,9.11
2019-01-13T12:57:44.845Z,9.05
2019-01-13T13:00:15.844Z,9.06
2019-01-13T13:02:44.321Z,9.07
2019-01-13T13:05:13.725Z,9.10
2019-01-13T13:07:42.074Z,9.12
2019-01-13T13:10:22.362Z,9.08
2019-01-13T13:12:50.760Z,9.10
2019-01-13T13:15:19.092Z,9.08
2019-01-13T13:17:47.378Z,9.09
2019-01-13T13:20:16.426Z,9.12
2019-01-13T13:22:44.753Z,9.12
2019-01-13T13:25:13.888Z,9.11
2019-01-13T13:27:42.195Z,9.13
2019-01-13T13:30:27.319Z,9.10
2019-01-13T13:32:55.892Z,9.08
2019-01-13T13:35:24.185Z,9.07
2019-01-13T13:37:52.427Z,9.06
2019-01-13T13:40:25.951Z,9.07
2019-01-13T13:42:54.314Z,9.08
2019-01-13T13:45:22.605Z,9.01
2019-01-13T13:47:51.181Z,9.04
2019-01-13T13:50:21.730Z,9.05
2019-01-13T13:52:49.998Z,9.04
2019-01-13T13:55:18.349Z,9.05
2019-01-13T13:57:46.649Z,9.07
2019-01-13T14:00:21.065Z,9.12
2019-01-13T14:02:49.386Z,9.13
2019-01-13T14:05:17.678Z,9.18
2019-01-13T14:07:46.002Z,9.16
2019-01-13T14:10:29.129Z,9.25
2019-01-13T14:12:57.502Z,9.26
2019-01-13T14:15:25.946Z,9.29
2019-01-13T14:17:54.749Z,9.28
2019-01-13T14:20:23.014Z,9.30
2019-01-13T14:22:51.363Z,9.31
2019-01-13T14:25:19.642Z,9.35
2019-01-13T14:27:47.994Z,9.36
2019-01-13T14:30:18.847Z,9.35
2019-01-13T14:32:47.140Z,9.36
2019-01-13T14:35:15.466Z,9.35
2019-01-13T14:37:43.847Z,9.38
2019-01-13T14:40:17.314Z,9.37
2019-01-13T14:42:45.641Z,9.35
2019-01-13T14:45:16.149Z,9.38
2019-01-13T14:47:44.478Z,9.41
2019-01-13T14:50:20.234Z,9.41
2019-01-13T14:52:48.755Z,9.42
2019-01-13T14:55:17.025Z,9.43
2019-01-13T14:57:45.352Z,9.45
2019-01-13T15:00:24.870Z,9.49
2019-01-13T15:02:53.220Z,9.46
2019-01-13T15:05:21.530Z,9.48
2019-01-13T15:07:49.865Z,9.55
2019-01-13T15:10:20.123Z,9.54
2019-01-13T15:12:48.422Z,9.55
2019-01-13T15:15:16.825Z,9.55
2019-01-13T15:17:45.149Z,9.56
2019-01-13T15:20:16.319Z,9.58
2019-01-13T15:22:44.982Z,9.56
2019-01-13T15:25:16.256Z,9.53
2019-01-13T15:27:44.574Z,9.54
2019-01-13T15:30:23.823Z,9.58
2019-01-13T15:32:52.201Z,9.58
2019-01-13T15:35:20.460Z,9.57
2019-01-13T15:37:48.811Z,9.56
2019-01-13T15:40:21.651Z,9.54
2019-01-13T15:42:49.956Z,9.54
2019-01-13T15:45:18.471Z,9.53
2019-01-13T15:47:46.741Z,9.52
2019-01-13T15:50:18.344Z,9.53
2019-01-13T15:52:46.687Z,9.27
2019-01-13T15:55:14.937Z,8.46
2019-01-13T15:57:43.198Z,8.14
2019-01-13T16:00:17.387Z,7.72
2019-01-13T16:02:45.652Z,7.61
2019-01-13T16:05:13.949Z,7.54
2019-01-13T16:07:42.343Z,7.59
2019-01-13T16:10:16.449Z,7.63
2019-01-13T16:12:44.838Z,7.59
2019-01-13T16:15:13.361Z,7.65
2019-01-13T16:17:41.684Z,7.73
2019-01-13T16:20:19.186Z,7.80
2019-01-13T16:22:47.501Z,7.89
2019-01-13T16:25:15.933Z,7.89
2019-01-13T16:27:44.198Z,7.89
2019-01-13T16:30:15.788Z,7.82
2019-01-13T16:32:44.222Z,7.86
2019-01-13T16:35:12.747Z,7.85
2019-01-13T16:37:41.137Z,7.81
2019-01-13T16:40:12.308Z,7.83
2019-01-13T16:42:40.640Z,7.89
2019-01-13T16:45:11.355Z,7.95
2019-01-13T16:47:39.651Z,8.00
2019-01-13T16:50:11.553Z,8.16
2019-01-13T16:52:39.960Z,8.27
2019-01-13T16:55:10.673Z,8.34
2019-01-13T16:57:38.955Z,8.39
2019-01-13T17:00:21.504Z,8.38
2019-01-13T17:02:49.873Z,8.38
2019-01-13T17:05:19.288Z,8.31
2019-01-13T17:07:47.604Z,8.28
2019-01-13T17:10:23.313Z,8.19
2019-01-13T17:12:51.537Z,8.20
2019-01-13T17:15:25.769Z,8.19
2019-01-13T17:17:54.101Z,8.14
2019-01-13T17:20:23.298Z,8.10
2019-01-13T17:22:51.583Z,8.09
2019-01-13T17:25:25.402Z,8.09
2019-01-13T17:27:54.907Z,8.07
2019-01-13T17:30:25.366Z,8.06
2019-01-13T17:32:53.725Z,8.07
2019-01-13T17:35:22.036Z,8.05
2019-01-13T17:37:51.076Z,8.14
2019-01-13T17:40:21.688Z,8.21
2019-01-13T17:42:50.008Z,8.32
2019-01-13T17:45:21.012Z,8.37
2019-01-13T17:47:49.677Z,8.40
2019-01-13T17:50:20.037Z,8.46
2019-01-13T17:52:48.305Z,8.46
2019-01-13T17:55:19.271Z,8.47
2019-01-13T17:57:47.700Z,8.44
2019-01-13T18:00:22.540Z,8.40
2019-01-13T18:02:50.847Z,8.32
2019-01-13T18:05:19.781Z,8.31
2019-01-13T18:07:48.276Z,8.26
2019-01-13T18:10:16.539Z,8.35
2019-01-13T18:12:44.838Z,8.30
2019-01-13T18:15:13.336Z,8.29
2019-01-13T18:17:41.617Z,8.27
2019-01-13T18:20:21.604Z,8.24
2019-01-13T18:22:49.963Z,8.28
2019-01-13T18:25:18.275Z,8.19
2019-01-13T18:27:46.719Z,8.16
2019-01-13T18:30:20.749Z,8.09
2019-01-13T18:32:49.112Z,8.10
2019-01-13T18:35:19.075Z,8.08
2019-01-13T18:37:47.381Z,8.05
2019-01-13T18:40:17.597Z,8.01
2019-01-13T18:42:45.905Z,7.97
2019-01-13T18:45:14.434Z,7.94
2019-01-13T18:47:42.730Z,7.91
2019-01-13T18:50:13.584Z,7.90
2019-01-13T18:52:44.166Z,7.90
2019-01-13T18:55:13.657Z,7.94
2019-01-13T18:57:42.030Z,7.93
2019-01-13T19:00:13.550Z,7.94
2019-01-13T19:02:41.850Z,7.97
2019-01-13T19:05:12.657Z,7.95
2019-01-13T19:07:41.074Z,7.96
2019-01-13T19:10:22.159Z,7.92
2019-01-13T19:12:59.936Z,7.89
2019-01-13T19:15:28.204Z,7.89
2019-01-13T19:17:58.390Z,7.90
2019-01-13T19:20:27.046Z,7.87
2019-01-13T19:22:55.336Z,7.87
2019-01-13T19:25:23.740Z,7.80
2019-01-13T19:27:52.283Z,7.78
2019-01-13T19:30:20.616Z,7.72
2019-01-13T19:32:48.945Z,7.73
2019-01-13T19:35:17.804Z,7.68
2019-01-13T19:37:46.317Z,7.67
2019-01-13T19:40:18.561Z,7.65
2019-01-13T19:42:47.144Z,7.62
2019-01-13T19:45:18.244Z,7.62
2019-01-13T19:47:47.161Z,7.63
2019-01-13T19:50:21.176Z,7.64
2019-01-13T19:52:50.021Z,7.59
2019-01-13T19:55:19.306Z,7.62
2019-01-13T19:57:48.514Z,7.62
2019-01-13T20:00:33.745Z,7.59
2019-01-13T20:03:02.605Z,7.55
2019-01-13T20:05:31.229Z,7.58
2019-01-13T20:07:59.717Z,7.60
2019-01-13T20:10:28.192Z,7.59
2019-01-13T20:12:56.554Z,7.58
2019-01-13T20:15:24.883Z,7.62
2019-01-13T20:17:53.321Z,7.61
2019-01-13T20:20:22.474Z,7.61
2019-01-13T20:22:51.035Z,7.58
2019-01-13T20:25:19.715Z,7.59
2019-01-13T20:27:48.101Z,7.60
2019-01-13T20:30:24.962Z,7.61
2019-01-13T20:32:53.458Z,7.64
2019-01-13T20:35:21.808Z,7.63
2019-01-13T20:37:50.176Z,7.65
2019-01-13T20:40:18.834Z,7.66
2019-01-13T20:42:47.157Z,7.65
2019-01-13T20:45:24.413Z,7.63
2019-01-13T20:47:52.709Z,7.67
2019-01-13T20:50:21.063Z,7.67
2019-01-13T20:52:49.483Z,7.70
2019-01-13T20:55:17.839Z,7.69
2019-01-13T20:57:46.164Z,7.68
2019-01-13T21:00:27.707Z,7.70
2019-01-13T21:02:56.044Z,7.69
2019-01-13T21:05:27.009Z,7.68
2019-01-13T21:07:54.431Z,7.64
2019-01-13T21:10:22.846Z,7.66
2019-01-13T21:12:51.094Z,7.58
2019-01-13T21:15:31.075Z,7.55
2019-01-13T21:17:59.294Z,7.59
2019-01-13T21:20:27.561Z,7.57
2019-01-13T21:22:55.870Z,7.61
2019-01-13T21:25:24.502Z,7.61
2019-01-13T21:27:53.968Z,7.58
2019-01-13T21:30:27.120Z,7.57
2019-01-13T21:32:55.837Z,7.51
2019-01-13T21:35:24.111Z,7.49
2019-01-13T21:37:52.367Z,7.42
2019-01-13T21:40:20.721Z,7.38
2019-01-13T21:42:48.964Z,7.32
2019-01-13T21:45:19.808Z,7.31
2019-01-13T21:47:48.196Z,7.32
2019-01-13T21:50:19.274Z,7.32
2019-01-13T21:52:47.581Z,7.31
2019-01-13T21:55:17.467Z,7.27
2019-01-13T21:57:45.734Z,7.33
2019-01-13T22:00:18.673Z,7.38
2019-01-13T22:02:46.953Z,7.40
2019-01-13T22:05:15.204Z,7.40
2019-01-13T22:07:43.469Z,7.41
2019-01-13T22:10:14.555Z,7.41
2019-01-13T22:12:43.704Z,7.43
2019-01-13T22:15:16.076Z,7.42
2019-01-13T22:17:44.359Z,7.43
2019-01-13T22:20:14.786Z,7.42
2019-01-13T22:22:44.866Z,7.41
2019-01-13T22:25:13.299Z,7.41
2019-01-13T22:27:41.863Z,7.40
2019-01-13T22:30:21.629Z,7.42
2019-01-13T22:32:50.051Z,7.44
2019-01-13T22:35:18.295Z,7.44
2019-01-13T22:37:47.099Z,7.41
2019-01-13T22:40:16.923Z,7.41
2019-01-13T22:42:45.177Z,7.40
2019-01-13T22:45:16.373Z,7.36
2019-01-13T22:47:44.623Z,7.30
2019-01-13T22:50:14.521Z,7.32
2019-01-13T22:52:42.877Z,7.33
2019-01-13T22:55:11.487Z,7.32
2019-01-13T22:57:39.752Z,7.31
2019-01-13T23:00:40.160Z,7.28
2019-01-13T23:03:08.430Z,7.26
2019-01-13T23:05:36.686Z,7.30
2019-01-13T23:08:05.003Z,7.26
2019-01-13T23:10:34.215Z,7.23
2019-01-13T23:13:05.816Z,7.24
2019-01-13T23:15:34.126Z,7.27
2019-01-13T23:18:03.728Z,7.19
2019-01-13T23:20:32.073Z,7.19
2019-01-13T23:23:00.470Z,7.13
2019-01-13T23:25:28.862Z,7.13
2019-01-13T23:27:57.142Z,7.13
2019-01-13T23:30:25.502Z,7.12
2019-01-13T23:32:53.900Z,7.15
2019-01-13T23:35:22.238Z,7.10
2019-01-13T23:37:50.583Z,7.08
2019-01-13T23:40:18.899Z,7.12
2019-01-13T23:42:47.292Z,7.10
2019-01-13T23:45:15.825Z,7.08
2019-01-13T23:47:44.861Z,7.02
2019-01-13T23:50:14.043Z,6.99
2019-01-13T23:52:42.292Z,7.02
2019-01-13T23:55:10.539Z,6.97
2019-01-13T23:57:38.820Z,7.00
